Ogdensburg, Wisconsin
Current Conditions -  °F | °C
As of 7:15 PM on Monday 26 Jan 2015 (Local Time) from KPCZ Reporting Station
Light Snow Light Snow  
Wind Chill: 25°   Ceiling: 1400
Heat Index: 25°   Visibility: 4mi
Dew Point: 23°   Wind: 0mph
Humidity: 90%   Direction: NA
Pressure: 29.88"   Gusts: NA
Location:  44.45°N, 89.03°W
Report Text: KPCZ 270115Z AUTO 00000KT 4SM -SN SCT008 OVC014 M04/M05 A2988 RMK AO2 T10371051
Loading
Personal Weather Stations






























Interactive Weather Map New forecast layout! Learn more

10-Day Weather Forecast

Advertisements
Track Severe Weather on mobile